Flight Track Log - Related Links

Times and Time Zones

All times are in EDT time to prevent confusion due to time zone crossing. See the AAL2007 flight status page for this flight to view local times or setup timezone preferences in your user account.

Time Position Orientation Groundspeed Altitude Reporting Facility
EDT Latitude Longitude Course Direction KTS MPH feet Rate Location/Type
Fri 06:46:40 PM 41.9333 -87.9167 207° Southwest 186 214 2,300  Level Chicago TRACON
Fri 06:47:34 PM 41.8833 -87.9667 217° Southwest 225 259 4,100 1,900 Climbing Chicago TRACON
Fri 06:48:40 PM 41.8167 -88.0333 217° Southwest 268 308 6,100 1,000 Climbing Chicago TRACON
Fri 06:49:00 PM 41.6005 -88.2874 197° South  Level Estimated
Fri 06:49:40 PM 41.7500 -88.0500 191° South 284 327 6,200  Level Chicago TRACON
Fri 06:50:00 PM 41.5050 -88.3819 194° South  Level Estimated
Fri 06:50:40 PM 41.6667 -88.0333 172° South 294 338 8,700  Level Chicago TRACON
Fri 06:51:00 PM 41.4095 -88.4761 207° Southwest  Level Estimated
Fri 06:51:57 PM 41.5797 -88.0575 192° South 300 345 11,900  Level Chicago Center
Fri 06:52:59 PM 41.4889 -88.1244 209° Southwest 321 369 13,800 1,839 Climbing Chicago Center
Fri 06:54:01 PM 41.3992 -88.1808 205° Southwest 365 420 15,700 2,129 Climbing Chicago Center
Fri 06:55:03 PM 41.2983 -88.2272 199° South 390 449 18,200 2,419 Climbing Chicago Center
Fri 06:56:05 PM 41.1736 -88.2836 199° South 399 459 20,700 2,081 Climbing Chicago Center
Fri 06:57:07 PM 41.0672 -88.3331 199° South 406 467 22,500 1,344 Climbing Chicago Center
Fri 06:58:10 PM 40.9592 -88.3806 198° South 411 473 23,500 1,152 Climbing Chicago Center
Fri 06:59:12 PM 40.8522 -88.4292 199° South 410 472 24,900 1,306 Climbing Chicago Center
Fri 07:00:14 PM 40.7386 -88.4786 198° South 426 490 26,200 1,306 Climbing Chicago Center
Fri 07:01:16 PM 40.5994 -88.5408 199° South 441 507 27,600 1,258 Climbing Chicago Center
Fri 07:02:18 PM 40.4800 -88.5933 198° South 453 521 28,800 1,161 Climbing Chicago Center
Fri 07:03:20 PM 40.3722 -88.6406 198° South 454 522 30,000 581 Climbing Chicago Center
Fri 07:04:22 PM 40.2636 -88.7214 210° Southwest 450 518 30,000  Level Chicago Center
Fri 07:05:24 PM 40.1492 -88.8397 218° Southwest 439 505 30,000  Level Chicago Center
Fri 07:06:26 PM 40.0533 -88.9372 218° Southwest 437 503 30,000  Level Chicago Center
Fri 07:07:28 PM 39.9586 -89.0358 219° Southwest 434 499 30,000  Level Chicago Center
Fri 07:08:19 PM 39.8711 -89.0981 209° Southwest 442 509 30,000  Level Kansas City Center
Fri 07:09:20 PM 39.7581 -89.1669 205° Southwest 447 514 30,000  Level Kansas City Center
Fri 07:10:21 PM 39.6450 -89.2369 205° Southwest 447 514 30,000  Level Kansas City Center
Fri 07:11:25 PM 39.5200 -89.3183 207° Southwest 447 514 30,000  Level Kansas City Center
Fri 07:12:25 PM 39.4089 -89.3892 206° Southwest 446 513 30,000  Level Kansas City Center
Fri 07:13:26 PM 39.2969 -89.4600 206° Southwest 448 516 30,000  Level Kansas City Center
Fri 07:14:31 PM 39.1864 -89.5297 206° Southwest 444 511 30,000  Level Kansas City Center
Fri 07:15:33 PM 39.0633 -89.6100 207° Southwest 446 513 30,000  Level Kansas City Center
Fri 07:16:33 PM 38.9431 -89.6856 206° Southwest 447 514 30,000  Level Kansas City Center
Fri 07:17:35 PM 38.8242 -89.7578 205° Southwest 460 529 30,000  Level Kansas City Center
Fri 07:18:39 PM 38.7033 -89.8208 202° Southwest 464 534 30,000  Level Kansas City Center
Fri 07:19:40 PM 38.5758 -89.8631 195° South 468 539 30,000  Level Kansas City Center
Fri 07:20:41 PM 38.4469 -89.9022 193° South 469 540 30,000  Level Kansas City Center
Fri 07:21:44 PM 38.3194 -89.9439 194° South 470 541 30,000  Level Kansas City Center
Fri 07:22:45 PM 38.1914 -89.9831 194° South 471 542 30,000  Level Kansas City Center
Fri 07:23:45 PM 38.0758 -90.0500 205° Southwest 459 528 30,000  Level Kansas City Center
Fri 07:24:50 PM 37.9856 -90.1581 223° Southwest 445 512 30,000  Level Kansas City Center
Fri 07:25:51 PM 37.8808 -90.2931 226° Southwest 444 511 30,000  Level Kansas City Center
Fri 07:26:52 PM 37.7947 -90.4058 226° Southwest 443 510 30,000  Level Kansas City Center
Fri 07:27:55 PM 37.7094 -90.5142 225° Southwest 441 507 30,000  Level Kansas City Center
Fri 07:28:56 PM 37.6275 -90.6258 227° Southwest 436 502 30,000  Level Kansas City Center
Fri 07:29:58 PM 37.5444 -90.7378 227° Southwest 436 502 30,000  Level Kansas City Center
Fri 07:31:01 PM 37.4219 -90.8044 203° Southwest 457 526 30,000  Level Kansas City Center
Fri 07:32:02 PM 37.3019 -90.8642 202° Southwest 459 528 30,000  Level Kansas City Center
Fri 07:33:03 PM 37.1842 -90.9264 203° Southwest 459 528 30,000  Level Kansas City Center
Fri 07:34:04 PM 37.0403 -91.0011 203° Southwest 461 531 30,000  Level Kansas City Center
Fri 07:35:08 PM 36.9192 -91.0625 202° Southwest 466 536 30,000  Level Kansas City Center
Fri 07:36:08 PM 36.7975 -91.1253 202° Southwest 466 536 30,000  Level Kansas City Center
Fri 07:37:12 PM 36.6758 -91.1878 202° Southwest 469 540 30,000  Level Kansas City Center
Fri 07:38:13 PM 36.5586 -91.2481 202° Southwest 469 540 30,000  Level Kansas City Center
Fri 07:39:14 PM 36.4331 -91.3089 201° Southwest 479 551 30,000  Level Kansas City Center
Fri 07:40:33 PM 36.3081 -91.4592 224° Southwest 446 513 30,000  Level Memphis Center
Fri 07:41:33 PM 36.2236 -91.5739 228° Southwest 446 513 30,000  Level Memphis Center
Fri 07:42:33 PM 36.1369 -91.6831 226° Southwest 451 519 30,000  Level Memphis Center
Fri 07:43:33 PM 36.0442 -91.7919 224° Southwest 451 519 30,000  Level Memphis Center
Fri 07:44:33 PM 35.9636 -91.9033 228° Southwest 451 519 30,000  Level Memphis Center
Fri 07:45:33 PM 35.8681 -92.0219 225° Southwest 445 512 30,000  Level Memphis Center
Fri 07:46:33 PM 35.7792 -92.1328 225° Southwest 451 519 30,000  Level Memphis Center
Fri 07:47:33 PM 35.6878 -92.2433 225° Southwest 451 519 30,000  Level Memphis Center
Fri 07:48:33 PM 35.6006 -92.3564 227° Southwest 451 519 30,000  Level Memphis Center
Fri 07:49:33 PM 35.5111 -92.4639 224° Southwest 451 519 30,000  Level Memphis Center
Fri 07:50:33 PM 35.4303 -92.5586 224° Southwest 451 519 30,000  Level Memphis Center
Fri 07:51:33 PM 35.3406 -92.6708 226° Southwest 451 519 30,000  Level Memphis Center
Fri 07:52:32 PM 35.2528 -92.7853 227° Southwest 459 528 30,000  Level Memphis Center
Fri 07:53:32 PM 35.1631 -92.9022 227° Southwest 459 528 30,000  Level Memphis Center
Fri 07:54:33 PM 35.0669 -93.0083 222° Southwest 464 534 30,000  Level Memphis Center
Fri 07:55:32 PM 34.9747 -93.1194 225° Southwest 475 547 30,000  Level Memphis Center
Fri 07:56:32 PM 34.8825 -93.2278 224° Southwest 470 541 30,000  Level Memphis Center
Fri 07:57:32 PM 34.7922 -93.3436 227° Southwest 470 541 30,000  Level Memphis Center
Fri 07:58:33 PM 34.6997 -93.4542 225° Southwest 475 547 30,000  Level Memphis Center
Fri 07:59:32 PM 34.6094 -93.5642 225° Southwest 475 547 30,000  Level Memphis Center
Fri 08:01:18 PM 34.4439 -93.7697 226° Southwest 454 522 30,000  Level Fort Worth Center
Fri 08:02:18 PM 34.3511 -93.8769 224° Southwest 459 528 30,000  Level Fort Worth Center
Fri 08:03:18 PM 34.2581 -93.9886 225° Southwest 459 528 30,000  Level Fort Worth Center
Fri 08:04:18 PM 34.1672 -94.0978 225° Southwest 464 534 30,000  Level Fort Worth Center
Fri 08:05:18 PM 34.0761 -94.2064 225° Southwest 469 540 30,000  Level Fort Worth Center
Fri 08:06:18 PM 33.9889 -94.3050 223° Southwest 474 545 30,000  Level Fort Worth Center
Fri 08:07:18 PM 33.8975 -94.4133 225° Southwest 474 545 30,000  Level Fort Worth Center
Fri 08:08:18 PM 33.8042 -94.5239 225° Southwest 474 545 30,000  Level Fort Worth Center
Fri 08:09:18 PM 33.7106 -94.6319 224° Southwest 474 545 30,000  Level Fort Worth Center
Fri 08:10:18 PM 33.6150 -94.7422 224° Southwest 474 545 30,000  Level Fort Worth Center
Fri 08:11:18 PM 33.5233 -94.8519 225° Southwest 474 545 30,000  Level Fort Worth Center
Fri 08:12:18 PM 33.4272 -94.9569 222° Southwest 479 551 30,000  Level Fort Worth Center
Fri 08:13:18 PM 33.3333 -95.0664 224° Southwest 479 551 30,000  Level Fort Worth Center
Fri 08:14:18 PM 33.2372 -95.1756 224° Southwest 479 551 30,000  Level Fort Worth Center
Fri 08:15:18 PM 33.1431 -95.2822 223° Southwest 474 545 30,000  Level Fort Worth Center
Fri 08:16:18 PM 33.0489 -95.3911 224° Southwest 474 545 30,000  Level Fort Worth Center
Fri 08:17:18 PM 32.9544 -95.4947 223° Southwest 474 545 30,000  Level Fort Worth Center
Fri 08:18:18 PM 32.8622 -95.6031 225° Southwest 474 545 30,000  Level Fort Worth Center
Fri 08:19:18 PM 32.7594 -95.7189 223° Southwest 474 545 30,000  Level Fort Worth Center
Fri 08:20:18 PM 32.6647 -95.8267 224° Southwest 474 545 30,000  Level Fort Worth Center
Fri 08:21:18 PM 32.5700 -95.9344 224° Southwest 474 545 30,000  Level Fort Worth Center
Fri 08:22:18 PM 32.4731 -96.0392 222° Southwest 474 545 30,000  Level Fort Worth Center
Fri 08:23:18 PM 32.3803 -96.1464 224° Southwest 474 545 30,000  Level Fort Worth Center
Fri 08:24:18 PM 32.2831 -96.2511 222° Southwest 474 545 30,000  Level Fort Worth Center
Fri 08:25:18 PM 32.1861 -96.3603 224° Southwest 474 545 30,000  Level Fort Worth Center
Fri 08:26:18 PM 32.0908 -96.4669 223° Southwest 474 545 30,000  Level Fort Worth Center
Fri 08:27:18 PM 31.9975 -96.5706 223° Southwest 474 545 30,000  Level Fort Worth Center
Fri 08:28:18 PM 31.9042 -96.6767 224° Southwest 469 540 30,000 -150 Level Fort Worth Center
Fri 08:29:18 PM 31.8025 -96.7753 220° Southwest 474 545 29,700 -850 Descending Fort Worth Center
Fri 08:30:18 PM 31.7006 -96.8469 211° Southwest 474 545 28,300 -1,783 Descending Fort Worth Center
Fri 08:31:36 PM 31.5542 -96.9531 212° Southwest 474 545 25,600 -2,029 Descending Houston Center
Fri 08:32:37 PM 31.4439 -97.0339 212° Southwest 466 536 23,600 -1,854 Descending Houston Center
Fri 08:33:39 PM 31.3381 -97.1128 212° Southwest 454 522 21,800 -1,742 Descending Houston Center
Fri 08:34:41 PM 31.2350 -97.1886 212° Southwest 440 506 20,000 -2,032 Descending Houston Center
Fri 08:35:43 PM 31.1072 -97.2472 201° Southwest 422 486 17,600 -2,177 Descending Houston Center
Fri 08:36:45 PM 30.9983 -97.2908 199° South 416 479 15,500 -1,902 Descending Houston Center
Fri 08:37:46 PM 30.8939 -97.3311 198° South 413 475 13,700 -1,220 Descending Houston Center
Fri 08:38:48 PM 30.7981 -97.3678 198° South 371 427 13,000 -1,306 Descending Houston Center
Fri 08:39:50 PM 30.7183 -97.4183 209° Southwest 328 377 11,000 -1,659 Descending Houston Center
Fri 08:40:51 PM 30.6311 -97.4781 211° Southwest 313 360 9,600 -1,415 Descending Houston Center
Fri 08:41:53 PM 30.5608 -97.5242 209° Southwest 294 338 8,100 -1,645 Descending Houston Center
Fri 08:42:55 PM 30.4886 -97.5603 203° Southwest 284 327 6,200 -1,887 Descending Houston Center
Fri 08:43:57 PM 30.4233 -97.5969 206° Southwest 264 304 4,200 -1,463 Descending Houston Center
Fri 08:44:58 PM 30.3656 -97.6272 204° Southwest 230 265 3,200 -829 Descending Houston Center
Fri 08:46:00 PM 30.3108 -97.6567 205° Southwest 218 251 2,500 -732 Descending Houston Center
Fri 08:47:01 PM 30.2647 -97.6586 182° South 179 206 1,700 -732 Descending Houston Center
Fri 08:48:03 PM 30.2247 -97.6583 180° South 155 178 1,000 -387 Descending Houston Center
Fri 08:49:05 PM 30.1867 -97.6556 176° South 152 175 900 -97 Descending Houston Center

Login

Don't have an account? Register now (free) for customized features, flight alerts, and more!